sensor_id;sensor_type;location;lat;lon;timestamp;P1;durP1;ratioP1;P2;durP2;ratioP2
74503;SDS011;62988;55.776;37.544;2023-07-30T00:01:41;10.50;;;5.23;;
74503;SDS011;62988;55.776;37.544;2023-07-30T00:04:06;9.60;;;5.45;;
74503;SDS011;62988;55.776;37.544;2023-07-30T00:06:31;9.37;;;5.23;;
74503;SDS011;62988;55.776;37.544;2023-07-30T00:08:57;9.37;;;5.60;;
74503;SDS011;62988;55.776;37.544;2023-07-30T00:11:22;11.95;;;5.65;;
74503;SDS011;62988;55.776;37.544;2023-07-30T00:13:47;9.57;;;5.53;;
74503;SDS011;62988;55.776;37.544;2023-07-30T00:16:13;9.60;;;5.20;;
74503;SDS011;62988;55.776;37.544;2023-07-30T00:18:38;9.07;;;5.07;;
74503;SDS011;62988;55.776;37.544;2023-07-30T00:21:03;10.23;;;5.27;;
74503;SDS011;62988;55.776;37.544;2023-07-30T00:23:29;9.47;;;4.87;;
74503;SDS011;62988;55.776;37.544;2023-07-30T00:25:54;10.38;;;5.55;;
74503;SDS011;62988;55.776;37.544;2023-07-30T00:28:20;8.43;;;4.80;;
74503;SDS011;62988;55.776;37.544;2023-07-30T00:30:45;6.95;;;4.60;;
74503;SDS011;62988;55.776;37.544;2023-07-30T00:33:11;9.68;;;4.63;;
74503;SDS011;62988;55.776;37.544;2023-07-30T00:35:36;12.20;;;5.32;;
74503;SDS011;62988;55.776;37.544;2023-07-30T00:38:02;9.38;;;4.65;;
74503;SDS011;62988;55.776;37.544;2023-07-30T00:40:27;10.23;;;5.30;;
74503;SDS011;62988;55.776;37.544;2023-07-30T00:42:52;9.87;;;5.20;;
74503;SDS011;62988;55.776;37.544;2023-07-30T00:45:18;9.35;;;5.22;;
74503;SDS011;62988;55.776;37.544;2023-07-30T00:47:43;7.10;;;4.70;;
74503;SDS011;62988;55.776;37.544;2023-07-30T00:50:09;8.00;;;5.15;;
74503;SDS011;62988;55.776;37.544;2023-07-30T00:52:35;8.85;;;4.45;;
74503;SDS011;62988;55.776;37.544;2023-07-30T00:55:02;8.23;;;4.50;;
74503;SDS011;62988;55.776;37.544;2023-07-30T00:57:28;9.70;;;4.90;;
74503;SDS011;62988;55.776;37.544;2023-07-30T00:59:53;9.50;;;5.03;;
74503;SDS011;62988;55.776;37.544;2023-07-30T01:02:19;9.98;;;4.70;;
74503;SDS011;62988;55.776;37.544;2023-07-30T01:04:44;6.85;;;5.15;;
74503;SDS011;62988;55.776;37.544;2023-07-30T01:07:10;7.80;;;4.65;;
74503;SDS011;62988;55.776;37.544;2023-07-30T01:09:36;9.95;;;4.82;;
74503;SDS011;62988;55.776;37.544;2023-07-30T01:12:02;8.32;;;4.45;;
74503;SDS011;62988;55.776;37.544;2023-07-30T01:14:27;14.70;;;5.15;;
74503;SDS011;62988;55.776;37.544;2023-07-30T01:16:53;9.45;;;5.28;;
74503;SDS011;62988;55.776;37.544;2023-07-30T01:19:19;9.43;;;5.30;;
74503;SDS011;62988;55.776;37.544;2023-07-30T01:21:44;6.37;;;4.07;;
74503;SDS011;62988;55.776;37.544;2023-07-30T01:24:10;6.70;;;4.87;;
74503;SDS011;62988;55.776;37.544;2023-07-30T01:26:43;9.13;;;5.80;;
74503;SDS011;62988;55.776;37.544;2023-07-30T01:29:28;7.88;;;4.32;;
74503;SDS011;62988;55.776;37.544;2023-07-30T01:31:56;8.63;;;4.63;;
74503;SDS011;62988;55.776;37.544;2023-07-30T01:34:26;8.70;;;4.43;;
74503;SDS011;62988;55.776;37.544;2023-07-30T01:36:52;7.00;;;4.38;;
74503;SDS011;62988;55.776;37.544;2023-07-30T01:39:18;6.60;;;4.80;;
74503;SDS011;62988;55.776;37.544;2023-07-30T01:41:44;10.45;;;4.45;;
74503;SDS011;62988;55.776;37.544;2023-07-30T01:44:09;7.17;;;3.87;;
74503;SDS011;62988;55.776;37.544;2023-07-30T01:46:35;10.07;;;4.93;;
74503;SDS011;62988;55.776;37.544;2023-07-30T01:49:00;9.90;;;5.07;;
74503;SDS011;62988;55.776;37.544;2023-07-30T01:51:25;9.27;;;4.90;;
74503;SDS011;62988;55.776;37.544;2023-07-30T01:53:51;7.80;;;4.40;;
74503;SDS011;62988;55.776;37.544;2023-07-30T01:56:16;8.20;;;4.60;;
74503;SDS011;62988;55.776;37.544;2023-07-30T01:58:41;6.10;;;3.97;;
74503;SDS011;62988;55.776;37.544;2023-07-30T02:01:07;6.67;;;3.83;;
74503;SDS011;62988;55.776;37.544;2023-07-30T02:03:32;7.68;;;5.20;;
74503;SDS011;62988;55.776;37.544;2023-07-30T02:05:57;8.47;;;4.50;;
74503;SDS011;62988;55.776;37.544;2023-07-30T02:08:23;7.10;;;4.10;;
74503;SDS011;62988;55.776;37.544;2023-07-30T02:10:58;9.93;;;5.23;;
74503;SDS011;62988;55.776;37.544;2023-07-30T02:13:23;6.93;;;4.70;;
74503;SDS011;62988;55.776;37.544;2023-07-30T02:15:49;7.85;;;4.10;;
74503;SDS011;62988;55.776;37.544;2023-07-30T02:18:14;9.52;;;5.22;;
74503;SDS011;62988;55.776;37.544;2023-07-30T02:20:40;8.00;;;3.60;;
74503;SDS011;62988;55.776;37.544;2023-07-30T02:23:05;9.93;;;4.38;;
74503;SDS011;62988;55.776;37.544;2023-07-30T02:25:30;8.27;;;4.53;;
74503;SDS011;62988;55.776;37.544;2023-07-30T02:27:56;8.40;;;4.53;;
74503;SDS011;62988;55.776;37.544;2023-07-30T02:30:21;7.88;;;4.75;;
74503;SDS011;62988;55.776;37.544;2023-07-30T02:32:47;9.13;;;4.33;;
74503;SDS011;62988;55.776;37.544;2023-07-30T02:35:12;7.33;;;4.77;;
74503;SDS011;62988;55.776;37.544;2023-07-30T02:37:37;11.43;;;4.30;;
74503;SDS011;62988;55.776;37.544;2023-07-30T02:40:03;6.93;;;3.67;;
74503;SDS011;62988;55.776;37.544;2023-07-30T02:42:30;7.47;;;3.90;;
74503;SDS011;62988;55.776;37.544;2023-07-30T02:44:55;6.75;;;4.10;;
74503;SDS011;62988;55.776;37.544;2023-07-30T02:47:20;8.20;;;3.92;;
74503;SDS011;62988;55.776;37.544;2023-07-30T02:49:46;8.17;;;4.30;;
74503;SDS011;62988;55.776;37.544;2023-07-30T02:52:11;10.00;;;4.23;;
74503;SDS011;62988;55.776;37.544;2023-07-30T02:54:36;8.83;;;4.07;;
74503;SDS011;62988;55.776;37.544;2023-07-30T02:57:02;7.10;;;4.20;;
74503;SDS011;62988;55.776;37.544;2023-07-30T02:59:27;10.32;;;4.05;;
74503;SDS011;62988;55.776;37.544;2023-07-30T03:01:52;9.80;;;3.88;;
74503;SDS011;62988;55.776;37.544;2023-07-30T03:04:18;7.70;;;4.30;;
74503;SDS011;62988;55.776;37.544;2023-07-30T03:06:43;7.85;;;4.45;;
74503;SDS011;62988;55.776;37.544;2023-07-30T03:09:08;7.60;;;4.40;;
74503;SDS011;62988;55.776;37.544;2023-07-30T03:11:34;6.20;;;3.83;;
74503;SDS011;62988;55.776;37.544;2023-07-30T03:13:59;8.03;;;3.50;;
74503;SDS011;62988;55.776;37.544;2023-07-30T03:16:25;7.63;;;3.80;;
74503;SDS011;62988;55.776;37.544;2023-07-30T03:18:50;7.63;;;3.83;;
74503;SDS011;62988;55.776;37.544;2023-07-30T03:21:15;8.93;;;3.70;;
74503;SDS011;62988;55.776;37.544;2023-07-30T03:23:40;7.90;;;3.40;;
74503;SDS011;62988;55.776;37.544;2023-07-30T03:26:09;5.82;;;3.90;;
74503;SDS011;62988;55.776;37.544;2023-07-30T03:28:34;7.73;;;3.73;;
74503;SDS011;62988;55.776;37.544;2023-07-30T03:30:59;6.63;;;4.20;;
74503;SDS011;62988;55.776;37.544;2023-07-30T03:33:25;8.15;;;4.20;;
74503;SDS011;62988;55.776;37.544;2023-07-30T03:35:50;7.20;;;3.83;;
74503;SDS011;62988;55.776;37.544;2023-07-30T03:38:16;6.22;;;3.60;;
74503;SDS011;62988;55.776;37.544;2023-07-30T03:40:41;7.32;;;4.15;;
74503;SDS011;62988;55.776;37.544;2023-07-30T03:43:06;9.87;;;3.87;;
74503;SDS011;62988;55.776;37.544;2023-07-30T03:45:32;8.90;;;3.87;;
74503;SDS011;62988;55.776;37.544;2023-07-30T03:47:58;5.47;;;3.25;;
74503;SDS011;62988;55.776;37.544;2023-07-30T03:50:23;5.00;;;3.20;;
74503;SDS011;62988;55.776;37.544;2023-07-30T03:52:48;5.50;;;3.27;;
74503;SDS011;62988;55.776;37.544;2023-07-30T03:55:14;8.87;;;3.97;;
74503;SDS011;62988;55.776;37.544;2023-07-30T03:57:40;5.13;;;3.42;;
74503;SDS011;62988;55.776;37.544;2023-07-30T04:00:05;4.80;;;2.77;;
74503;SDS011;62988;55.776;37.544;2023-07-30T04:02:31;4.82;;;2.95;;
74503;SDS011;62988;55.776;37.544;2023-07-30T04:04:56;5.03;;;2.97;;
74503;SDS011;62988;55.776;37.544;2023-07-30T04:07:22;8.00;;;3.27;;
74503;SDS011;62988;55.776;37.544;2023-07-30T04:09:47;4.97;;;3.17;;
74503;SDS011;62988;55.776;37.544;2023-07-30T04:12:12;6.37;;;3.27;;
74503;SDS011;62988;55.776;37.544;2023-07-30T04:14:38;5.53;;;3.17;;
74503;SDS011;62988;55.776;37.544;2023-07-30T04:17:03;7.60;;;3.23;;
74503;SDS011;62988;55.776;37.544;2023-07-30T04:19:28;5.38;;;2.95;;
74503;SDS011;62988;55.776;37.544;2023-07-30T04:21:54;7.93;;;3.10;;
74503;SDS011;62988;55.776;37.544;2023-07-30T04:24:19;4.90;;;2.70;;
74503;SDS011;62988;55.776;37.544;2023-07-30T04:26:44;4.63;;;2.70;;
74503;SDS011;62988;55.776;37.544;2023-07-30T04:29:10;5.72;;;2.60;;
74503;SDS011;62988;55.776;37.544;2023-07-30T04:31:35;6.45;;;3.10;;
74503;SDS011;62988;55.776;37.544;2023-07-30T04:34:01;5.63;;;2.85;;
74503;SDS011;62988;55.776;37.544;2023-07-30T04:36:26;9.00;;;3.60;;
74503;SDS011;62988;55.776;37.544;2023-07-30T04:38:51;5.30;;;3.00;;
74503;SDS011;62988;55.776;37.544;2023-07-30T04:41:17;4.82;;;2.42;;
74503;SDS011;62988;55.776;37.544;2023-07-30T04:43:43;4.80;;;2.72;;
74503;SDS011;62988;55.776;37.544;2023-07-30T04:46:09;3.97;;;2.63;;
74503;SDS011;62988;55.776;37.544;2023-07-30T04:48:34;5.75;;;2.78;;
74503;SDS011;62988;55.776;37.544;2023-07-30T04:50:59;5.27;;;2.30;;
74503;SDS011;62988;55.776;37.544;2023-07-30T04:53:25;4.17;;;2.40;;
74503;SDS011;62988;55.776;37.544;2023-07-30T04:55:54;5.53;;;2.40;;
74503;SDS011;62988;55.776;37.544;2023-07-30T04:58:20;4.65;;;2.13;;
74503;SDS011;62988;55.776;37.544;2023-07-30T05:00:45;4.37;;;2.20;;
74503;SDS011;62988;55.776;37.544;2023-07-30T05:03:10;4.23;;;2.10;;
74503;SDS011;62988;55.776;37.544;2023-07-30T05:05:36;6.65;;;2.30;;
74503;SDS011;62988;55.776;37.544;2023-07-30T05:08:01;4.67;;;1.87;;
74503;SDS011;62988;55.776;37.544;2023-07-30T05:10:26;4.70;;;2.17;;
74503;SDS011;62988;55.776;37.544;2023-07-30T05:12:52;7.33;;;3.10;;
74503;SDS011;62988;55.776;37.544;2023-07-30T05:15:17;7.97;;;2.73;;
74503;SDS011;62988;55.776;37.544;2023-07-30T05:17:42;4.70;;;2.55;;
74503;SDS011;62988;55.776;37.544;2023-07-30T05:20:08;5.15;;;2.53;;
74503;SDS011;62988;55.776;37.544;2023-07-30T05:22:33;4.05;;;2.08;;
74503;SDS011;62988;55.776;37.544;2023-07-30T05:24:59;4.87;;;2.40;;
74503;SDS011;62988;55.776;37.544;2023-07-30T05:27:24;5.57;;;2.20;;
74503;SDS011;62988;55.776;37.544;2023-07-30T05:29:49;4.40;;;2.60;;
74503;SDS011;62988;55.776;37.544;2023-07-30T05:32:15;3.83;;;2.30;;
74503;SDS011;62988;55.776;37.544;2023-07-30T05:34:40;5.10;;;2.53;;
74503;SDS011;62988;55.776;37.544;2023-07-30T05:37:05;3.90;;;2.33;;
74503;SDS011;62988;55.776;37.544;2023-07-30T05:39:31;2.97;;;1.97;;
74503;SDS011;62988;55.776;37.544;2023-07-30T05:41:56;3.95;;;2.33;;
74503;SDS011;62988;55.776;37.544;2023-07-30T05:44:21;5.47;;;2.30;;
74503;SDS011;62988;55.776;37.544;2023-07-30T05:46:47;7.18;;;2.22;;
74503;SDS011;62988;55.776;37.544;2023-07-30T05:49:13;4.57;;;2.00;;
74503;SDS011;62988;55.776;37.544;2023-07-30T05:51:39;4.78;;;2.40;;
74503;SDS011;62988;55.776;37.544;2023-07-30T05:54:05;3.08;;;1.80;;
74503;SDS011;62988;55.776;37.544;2023-07-30T05:56:30;4.43;;;1.93;;
74503;SDS011;62988;55.776;37.544;2023-07-30T05:58:55;4.90;;;2.10;;
74503;SDS011;62988;55.776;37.544;2023-07-30T06:01:21;4.90;;;2.10;;
74503;SDS011;62988;55.776;37.544;2023-07-30T06:03:46;3.80;;;2.03;;
74503;SDS011;62988;55.776;37.544;2023-07-30T06:06:12;5.17;;;2.20;;
74503;SDS011;62988;55.776;37.544;2023-07-30T06:08:37;3.47;;;1.87;;
74503;SDS011;62988;55.776;37.544;2023-07-30T06:11:02;3.80;;;2.13;;
74503;SDS011;62988;55.776;37.544;2023-07-30T06:13:28;5.72;;;2.20;;
74503;SDS011;62988;55.776;37.544;2023-07-30T06:15:54;3.60;;;2.05;;
74503;SDS011;62988;55.776;37.544;2023-07-30T06:18:19;3.92;;;2.20;;
74503;SDS011;62988;55.776;37.544;2023-07-30T06:20:44;4.47;;;2.63;;
74503;SDS011;62988;55.776;37.544;2023-07-30T06:23:10;4.85;;;2.38;;
74503;SDS011;62988;55.776;37.544;2023-07-30T06:25:35;5.17;;;2.00;;
74503;SDS011;62988;55.776;37.544;2023-07-30T06:28:00;4.68;;;2.35;;
74503;SDS011;62988;55.776;37.544;2023-07-30T06:30:26;5.33;;;2.10;;
74503;SDS011;62988;55.776;37.544;2023-07-30T06:32:51;3.45;;;2.00;;
74503;SDS011;62988;55.776;37.544;2023-07-30T06:35:16;3.20;;;2.13;;
74503;SDS011;62988;55.776;37.544;2023-07-30T06:37:42;3.30;;;2.17;;
74503;SDS011;62988;55.776;37.544;2023-07-30T06:40:07;4.40;;;2.03;;
74503;SDS011;62988;55.776;37.544;2023-07-30T06:42:33;4.50;;;2.45;;
74503;SDS011;62988;55.776;37.544;2023-07-30T06:44:58;5.32;;;2.10;;
74503;SDS011;62988;55.776;37.544;2023-07-30T06:47:24;4.10;;;2.03;;
74503;SDS011;62988;55.776;37.544;2023-07-30T06:49:49;2.80;;;2.10;;
74503;SDS011;62988;55.776;37.544;2023-07-30T06:52:14;5.47;;;1.98;;
74503;SDS011;62988;55.776;37.544;2023-07-30T06:54:40;3.67;;;1.90;;
74503;SDS011;62988;55.776;37.544;2023-07-30T06:57:05;3.27;;;2.13;;
74503;SDS011;62988;55.776;37.544;2023-07-30T06:59:30;5.70;;;2.00;;
74503;SDS011;62988;55.776;37.544;2023-07-30T07:01:56;3.97;;;1.80;;
74503;SDS011;62988;55.776;37.544;2023-07-30T07:04:21;3.63;;;1.90;;
74503;SDS011;62988;55.776;37.544;2023-07-30T07:06:46;4.75;;;1.65;;
74503;SDS011;62988;55.776;37.544;2023-07-30T07:09:12;3.63;;;1.70;;
74503;SDS011;62988;55.776;37.544;2023-07-30T07:11:37;2.83;;;1.70;;
74503;SDS011;62988;55.776;37.544;2023-07-30T07:14:02;2.97;;;1.87;;
74503;SDS011;62988;55.776;37.544;2023-07-30T07:16:28;5.47;;;2.00;;
74503;SDS011;62988;55.776;37.544;2023-07-30T07:18:53;3.33;;;1.80;;
74503;SDS011;62988;55.776;37.544;2023-07-30T07:21:18;4.60;;;2.17;;
74503;SDS011;62988;55.776;37.544;2023-07-30T07:23:45;5.40;;;2.60;;
74503;SDS011;62988;55.776;37.544;2023-07-30T07:26:10;3.53;;;1.85;;
74503;SDS011;62988;55.776;37.544;2023-07-30T07:28:36;3.70;;;2.27;;
74503;SDS011;62988;55.776;37.544;2023-07-30T07:31:01;5.10;;;1.80;;
74503;SDS011;62988;55.776;37.544;2023-07-30T07:33:26;4.00;;;1.70;;
74503;SDS011;62988;55.776;37.544;2023-07-30T07:35:52;4.13;;;1.93;;
74503;SDS011;62988;55.776;37.544;2023-07-30T07:38:27;3.80;;;2.20;;
74503;SDS011;62988;55.776;37.544;2023-07-30T07:40:52;2.93;;;1.67;;
74503;SDS011;62988;55.776;37.544;2023-07-30T07:43:17;8.93;;;2.23;;
74503;SDS011;62988;55.776;37.544;2023-07-30T07:45:42;4.53;;;2.57;;
74503;SDS011;62988;55.776;37.544;2023-07-30T07:48:08;5.77;;;2.27;;
74503;SDS011;62988;55.776;37.544;2023-07-30T07:50:33;3.93;;;1.70;;
74503;SDS011;62988;55.776;37.544;2023-07-30T07:52:58;5.07;;;1.90;;
74503;SDS011;62988;55.776;37.544;2023-07-30T07:55:24;5.23;;;1.90;;
74503;SDS011;62988;55.776;37.544;2023-07-30T07:57:49;5.37;;;1.83;;
74503;SDS011;62988;55.776;37.544;2023-07-30T08:00:14;5.03;;;1.83;;
74503;SDS011;62988;55.776;37.544;2023-07-30T08:02:40;3.43;;;1.63;;
74503;SDS011;62988;55.776;37.544;2023-07-30T08:05:05;4.90;;;1.80;;
74503;SDS011;62988;55.776;37.544;2023-07-30T08:07:30;4.38;;;1.88;;
74503;SDS011;62988;55.776;37.544;2023-07-30T08:09:56;2.97;;;1.70;;
74503;SDS011;62988;55.776;37.544;2023-07-30T08:12:21;4.35;;;2.08;;
74503;SDS011;62988;55.776;37.544;2023-07-30T08:14:46;4.30;;;2.07;;
74503;SDS011;62988;55.776;37.544;2023-07-30T08:17:12;6.33;;;2.03;;
74503;SDS011;62988;55.776;37.544;2023-07-30T08:19:37;4.07;;;2.00;;
74503;SDS011;62988;55.776;37.544;2023-07-30T08:22:02;2.70;;;1.90;;
74503;SDS011;62988;55.776;37.544;2023-07-30T08:24:28;3.20;;;2.15;;
74503;SDS011;62988;55.776;37.544;2023-07-30T08:26:53;5.27;;;2.27;;
74503;SDS011;62988;55.776;37.544;2023-07-30T08:29:18;5.43;;;1.93;;
74503;SDS011;62988;55.776;37.544;2023-07-30T08:31:44;4.23;;;2.03;;
74503;SDS011;62988;55.776;37.544;2023-07-30T08:34:09;2.70;;;1.80;;
74503;SDS011;62988;55.776;37.544;2023-07-30T08:36:34;4.73;;;2.00;;
74503;SDS011;62988;55.776;37.544;2023-07-30T08:39:00;3.67;;;1.87;;
74503;SDS011;62988;55.776;37.544;2023-07-30T08:41:26;4.60;;;2.10;;
74503;SDS011;62988;55.776;37.544;2023-07-30T08:43:51;6.17;;;1.90;;
74503;SDS011;62988;55.776;37.544;2023-07-30T08:46:18;3.80;;;2.08;;
74503;SDS011;62988;55.776;37.544;2023-07-30T08:48:43;5.77;;;2.10;;
74503;SDS011;62988;55.776;37.544;2023-07-30T08:51:08;4.45;;;1.92;;
74503;SDS011;62988;55.776;37.544;2023-07-30T08:53:34;5.35;;;2.00;;
74503;SDS011;62988;55.776;37.544;2023-07-30T08:55:59;3.58;;;1.83;;
74503;SDS011;62988;55.776;37.544;2023-07-30T08:58:25;4.03;;;1.75;;
74503;SDS011;62988;55.776;37.544;2023-07-30T09:00:53;4.07;;;1.70;;
74503;SDS011;62988;55.776;37.544;2023-07-30T09:03:19;7.13;;;1.92;;
74503;SDS011;62988;55.776;37.544;2023-07-30T09:05:46;2.90;;;1.73;;
74503;SDS011;62988;55.776;37.544;2023-07-30T09:08:12;5.75;;;1.90;;
74503;SDS011;62988;55.776;37.544;2023-07-30T09:10:37;5.43;;;1.80;;
74503;SDS011;62988;55.776;37.544;2023-07-30T09:13:02;2.97;;;1.73;;
74503;SDS011;62988;55.776;37.544;2023-07-30T09:15:35;5.53;;;2.03;;
74503;SDS011;62988;55.776;37.544;2023-07-30T09:18:02;2.75;;;1.60;;
74503;SDS011;62988;55.776;37.544;2023-07-30T09:20:28;5.05;;;1.80;;
74503;SDS011;62988;55.776;37.544;2023-07-30T09:22:55;4.20;;;2.00;;
74503;SDS011;62988;55.776;37.544;2023-07-30T09:25:21;5.88;;;1.70;;
74503;SDS011;62988;55.776;37.544;2023-07-30T09:27:50;3.92;;;1.80;;
74503;SDS011;62988;55.776;37.544;2023-07-30T09:30:15;7.63;;;1.77;;
74503;SDS011;62988;55.776;37.544;2023-07-30T09:32:50;12.15;;;1.90;;
74503;SDS011;62988;55.776;37.544;2023-07-30T09:35:15;3.47;;;1.75;;
74503;SDS011;62988;55.776;37.544;2023-07-30T09:37:42;3.22;;;1.85;;
74503;SDS011;62988;55.776;37.544;2023-07-30T09:40:08;8.17;;;1.43;;
74503;SDS011;62988;55.776;37.544;2023-07-30T09:42:34;5.32;;;1.60;;
74503;SDS011;62988;55.776;37.544;2023-07-30T09:45:03;5.20;;;1.73;;
74503;SDS011;62988;55.776;37.544;2023-07-30T09:47:28;2.92;;;1.58;;
74503;SDS011;62988;55.776;37.544;2023-07-30T09:49:55;4.75;;;1.67;;
74503;SDS011;62988;55.776;37.544;2023-07-30T09:52:21;3.03;;;1.60;;
74503;SDS011;62988;55.776;37.544;2023-07-30T09:54:47;6.47;;;2.03;;
74503;SDS011;62988;55.776;37.544;2023-07-30T09:57:15;3.17;;;1.58;;
74503;SDS011;62988;55.776;37.544;2023-07-30T09:59:40;3.13;;;1.80;;
74503;SDS011;62988;55.776;37.544;2023-07-30T10:02:05;4.83;;;1.57;;
74503;SDS011;62988;55.776;37.544;2023-07-30T10:04:32;6.50;;;1.55;;
74503;SDS011;62988;55.776;37.544;2023-07-30T10:06:58;3.88;;;1.52;;
74503;SDS011;62988;55.776;37.544;2023-07-30T10:09:27;5.05;;;1.95;;
74503;SDS011;62988;55.776;37.544;2023-07-30T10:11:54;7.47;;;1.80;;
74503;SDS011;62988;55.776;37.544;2023-07-30T10:14:20;8.80;;;1.77;;
74503;SDS011;62988;55.776;37.544;2023-07-30T10:16:50;8.80;;;2.40;;
74503;SDS011;62988;55.776;37.544;2023-07-30T10:19:16;3.38;;;1.83;;
74503;SDS011;62988;55.776;37.544;2023-07-30T10:21:43;3.33;;;1.90;;
74503;SDS011;62988;55.776;37.544;2023-07-30T10:24:08;2.77;;;1.60;;
74503;SDS011;62988;55.776;37.544;2023-07-30T10:26:35;3.65;;;1.67;;
74503;SDS011;62988;55.776;37.544;2023-07-30T10:31:40;3.95;;;1.67;;
74503;SDS011;62988;55.776;37.544;2023-07-30T10:34:09;4.70;;;1.50;;
74503;SDS011;62988;55.776;37.544;2023-07-30T10:39:11;5.00;;;1.67;;
74503;SDS011;62988;55.776;37.544;2023-07-30T10:41:37;3.42;;;1.40;;
74503;SDS011;62988;55.776;37.544;2023-07-30T10:44:03;4.50;;;1.67;;
74503;SDS011;62988;55.776;37.544;2023-07-30T10:46:28;4.80;;;1.90;;
74503;SDS011;62988;55.776;37.544;2023-07-30T10:48:54;3.60;;;1.20;;
74503;SDS011;62988;55.776;37.544;2023-07-30T10:51:19;5.47;;;1.13;;
74503;SDS011;62988;55.776;37.544;2023-07-30T10:53:49;3.47;;;1.30;;
74503;SDS011;62988;55.776;37.544;2023-07-30T10:56:16;3.08;;;1.15;;
74503;SDS011;62988;55.776;37.544;2023-07-30T10:58:41;7.10;;;1.70;;
74503;SDS011;62988;55.776;37.544;2023-07-30T11:01:07;4.18;;;1.52;;
74503;SDS011;62988;55.776;37.544;2023-07-30T11:03:33;4.80;;;1.73;;
74503;SDS011;62988;55.776;37.544;2023-07-30T11:05:59;4.03;;;1.50;;
74503;SDS011;62988;55.776;37.544;2023-07-30T11:08:58;3.20;;;1.48;;
74503;SDS011;62988;55.776;37.544;2023-07-30T11:11:16;4.95;;;1.77;;
74503;SDS011;62988;55.776;37.544;2023-07-30T11:13:43;6.55;;;2.00;;
74503;SDS011;62988;55.776;37.544;2023-07-30T11:16:08;3.33;;;1.65;;
74503;SDS011;62988;55.776;37.544;2023-07-30T11:18:35;3.65;;;1.40;;
74503;SDS011;62988;55.776;37.544;2023-07-30T11:21:04;4.07;;;1.85;;
74503;SDS011;62988;55.776;37.544;2023-07-30T11:23:30;5.38;;;1.58;;
74503;SDS011;62988;55.776;37.544;2023-07-30T11:25:55;3.90;;;1.60;;
74503;SDS011;62988;55.776;37.544;2023-07-30T11:28:53;6.90;;;1.90;;
74503;SDS011;62988;55.776;37.544;2023-07-30T11:31:13;3.53;;;1.77;;
74503;SDS011;62988;55.776;37.544;2023-07-30T11:33:48;4.30;;;1.60;;
74503;SDS011;62988;55.776;37.544;2023-07-30T11:36:20;3.10;;;1.38;;
74503;SDS011;62988;55.776;37.544;2023-07-30T11:38:46;2.33;;;1.52;;
74503;SDS011;62988;55.776;37.544;2023-07-30T11:41:12;5.13;;;1.50;;
74503;SDS011;62988;55.776;37.544;2023-07-30T11:43:39;3.03;;;1.55;;
74503;SDS011;62988;55.776;37.544;2023-07-30T11:48:33;4.38;;;1.60;;
74503;SDS011;62988;55.776;37.544;2023-07-30T11:50:58;3.23;;;1.77;;
74503;SDS011;62988;55.776;37.544;2023-07-30T11:53:29;5.05;;;1.40;;
74503;SDS011;62988;55.776;37.544;2023-07-30T11:56:14;8.77;;;2.92;;
74503;SDS011;62988;55.776;37.544;2023-07-30T11:58:41;4.68;;;1.67;;
74503;SDS011;62988;55.776;37.544;2023-07-30T12:01:06;5.32;;;1.70;;
74503;SDS011;62988;55.776;37.544;2023-07-30T12:03:31;4.07;;;1.63;;
74503;SDS011;62988;55.776;37.544;2023-07-30T12:05:57;2.60;;;1.45;;
74503;SDS011;62988;55.776;37.544;2023-07-30T12:08:25;4.50;;;1.70;;
74503;SDS011;62988;55.776;37.544;2023-07-30T12:10:50;5.18;;;1.70;;
74503;SDS011;62988;55.776;37.544;2023-07-30T12:13:18;3.45;;;1.50;;
74503;SDS011;62988;55.776;37.544;2023-07-30T12:15:44;3.83;;;1.88;;
74503;SDS011;62988;55.776;37.544;2023-07-30T12:18:09;3.13;;;1.27;;
74503;SDS011;62988;55.776;37.544;2023-07-30T12:20:34;11.07;;;1.90;;
74503;SDS011;62988;55.776;37.544;2023-07-30T12:23:00;4.68;;;1.70;;
74503;SDS011;62988;55.776;37.544;2023-07-30T12:25:26;4.43;;;1.38;;
74503;SDS011;62988;55.776;37.544;2023-07-30T12:27:51;6.40;;;1.63;;
74503;SDS011;62988;55.776;37.544;2023-07-30T12:30:16;4.73;;;1.87;;
74503;SDS011;62988;55.776;37.544;2023-07-30T12:32:42;5.40;;;1.47;;
74503;SDS011;62988;55.776;37.544;2023-07-30T12:35:07;3.87;;;1.57;;
74503;SDS011;62988;55.776;37.544;2023-07-30T12:37:32;3.85;;;1.60;;
74503;SDS011;62988;55.776;37.544;2023-07-30T12:40:00;4.47;;;1.40;;
74503;SDS011;62988;55.776;37.544;2023-07-30T12:42:25;3.40;;;1.47;;
74503;SDS011;62988;55.776;37.544;2023-07-30T12:44:50;7.37;;;2.20;;
74503;SDS011;62988;55.776;37.544;2023-07-30T12:47:16;7.87;;;2.07;;
74503;SDS011;62988;55.776;37.544;2023-07-30T12:49:41;2.00;;;1.10;;
74503;SDS011;62988;55.776;37.544;2023-07-30T12:52:06;2.30;;;1.07;;
74503;SDS011;62988;55.776;37.544;2023-07-30T12:54:32;3.65;;;1.38;;
74503;SDS011;62988;55.776;37.544;2023-07-30T12:56:57;3.33;;;1.47;;
74503;SDS011;62988;55.776;37.544;2023-07-30T12:59:23;4.97;;;1.90;;
74503;SDS011;62988;55.776;37.544;2023-07-30T13:01:48;5.78;;;1.63;;
74503;SDS011;62988;55.776;37.544;2023-07-30T13:04:13;3.07;;;1.63;;
74503;SDS011;62988;55.776;37.544;2023-07-30T13:06:39;3.33;;;1.50;;
74503;SDS011;62988;55.776;37.544;2023-07-30T13:09:04;3.90;;;1.80;;
74503;SDS011;62988;55.776;37.544;2023-07-30T13:11:29;3.57;;;1.60;;
74503;SDS011;62988;55.776;37.544;2023-07-30T13:13:55;1.77;;;0.90;;
74503;SDS011;62988;55.776;37.544;2023-07-30T13:16:20;3.23;;;2.10;;
74503;SDS011;62988;55.776;37.544;2023-07-30T13:18:45;3.03;;;1.58;;
74503;SDS011;62988;55.776;37.544;2023-07-30T13:21:10;3.10;;;1.27;;
74503;SDS011;62988;55.776;37.544;2023-07-30T13:23:36;3.47;;;1.50;;
74503;SDS011;62988;55.776;37.544;2023-07-30T13:26:01;6.40;;;1.90;;
74503;SDS011;62988;55.776;37.544;2023-07-30T13:28:28;2.95;;;1.38;;
74503;SDS011;62988;55.776;37.544;2023-07-30T13:30:53;2.90;;;1.15;;
74503;SDS011;62988;55.776;37.544;2023-07-30T13:33:18;3.87;;;1.50;;
74503;SDS011;62988;55.776;37.544;2023-07-30T13:35:44;4.90;;;1.70;;
74503;SDS011;62988;55.776;37.544;2023-07-30T13:38:09;2.57;;;1.43;;
74503;SDS011;62988;55.776;37.544;2023-07-30T13:40:34;2.60;;;1.47;;
74503;SDS011;62988;55.776;37.544;2023-07-30T13:43:00;5.90;;;1.63;;
74503;SDS011;62988;55.776;37.544;2023-07-30T13:45:25;3.73;;;1.40;;
74503;SDS011;62988;55.776;37.544;2023-07-30T13:47:51;5.00;;;1.55;;
74503;SDS011;62988;55.776;37.544;2023-07-30T13:50:16;3.13;;;1.63;;
74503;SDS011;62988;55.776;37.544;2023-07-30T13:52:41;3.90;;;1.70;;
74503;SDS011;62988;55.776;37.544;2023-07-30T13:55:07;2.90;;;1.33;;
74503;SDS011;62988;55.776;37.544;2023-07-30T13:57:32;3.88;;;1.40;;
74503;SDS011;62988;55.776;37.544;2023-07-30T13:59:57;3.60;;;1.30;;
74503;SDS011;62988;55.776;37.544;2023-07-30T14:02:23;3.17;;;1.57;;
74503;SDS011;62988;55.776;37.544;2023-07-30T14:04:48;3.22;;;1.48;;
74503;SDS011;62988;55.776;37.544;2023-07-30T14:07:13;3.97;;;1.13;;
74503;SDS011;62988;55.776;37.544;2023-07-30T14:09:39;3.00;;;1.42;;
74503;SDS011;62988;55.776;37.544;2023-07-30T14:12:04;4.32;;;1.60;;
74503;SDS011;62988;55.776;37.544;2023-07-30T14:14:30;4.30;;;1.70;;
74503;SDS011;62988;55.776;37.544;2023-07-30T14:16:55;13.50;;;1.85;;
74503;SDS011;62988;55.776;37.544;2023-07-30T14:19:21;3.75;;;1.45;;
74503;SDS011;62988;55.776;37.544;2023-07-30T14:21:46;2.70;;;1.40;;
74503;SDS011;62988;55.776;37.544;2023-07-30T14:24:11;3.00;;;1.63;;
74503;SDS011;62988;55.776;37.544;2023-07-30T14:26:37;3.38;;;1.50;;
74503;SDS011;62988;55.776;37.544;2023-07-30T14:29:02;4.67;;;1.60;;
74503;SDS011;62988;55.776;37.544;2023-07-30T14:31:27;2.97;;;1.37;;
74503;SDS011;62988;55.776;37.544;2023-07-30T14:33:53;2.78;;;1.77;;